首页
METAR-TAF:

METAR-TAF

机场 :

Pellston Regional Airport of Emmet County

Pellston, 密歇根州, 美国

纬度: 45-34-15N, 经度: 084-47-48W, 海拔: 220米

当前天气观测

该预报发布于1小时和2分钟前的05:54 UTC
静风
温度 -1°C
湿度 80%
气压 1029 hPa
能見度: 16.1公里
天空无云

METAR: KPLN 130554Z AUTO 00000KT 10SM CLR M01/M04 A3038 RMK AO2 SLP295 T10111044 10133 21022 56002

时间: 02:56 (06:56 UTC)

预报

该预报发布于1小时和36分钟前的05:20 UTC
预报有效从13日的 06点(UTC)到 14日的 06点(UTC)
风速节,风向
能見度: 10公里
天空无云
从 13日的 1500点(UTC)
风速9节,风向西
能見度: 10公里
天空无云
从 14日的 0000点(UTC)
风速节,风向
能見度: 10公里
天空无云

TAF: KPLN 130520Z 1306/1406 00000KT P6SM SKC FM131500 28009KT P6SM SKC FM140000 00000KT P6SM SKC

超过4000个机场的气象观测和天气预报(METAR&TAF报告)。

可查询的气象台以黄色和红色小点在地图上表示。

将鼠标移到小点上方,可查看气象台名称。

然后点击查看天气观测和预报。

如需切换地图:点击带黑十字的绿色按钮放大地图;点击带横线的绿色按钮缩小地图;或者点击绿色箭头查看邻近地区的地图。


METAR-TAF: